sensor_id;sensor_type;location;lat;lon;timestamp;temperature;humidity
55091;DHT22;40985;53.180;5.800;2024-03-02T00:00:21;7.20;99.90
55091;DHT22;40985;53.180;5.800;2024-03-02T00:02:49;7.20;99.90
55091;DHT22;40985;53.180;5.800;2024-03-02T00:05:19;7.10;99.90
55091;DHT22;40985;53.180;5.800;2024-03-02T00:07:52;7.10;99.90
55091;DHT22;40985;53.180;5.800;2024-03-02T00:10:21;7.10;99.90
55091;DHT22;40985;53.180;5.800;2024-03-02T00:12:50;7.10;99.90
55091;DHT22;40985;53.180;5.800;2024-03-02T00:15:48;7.10;99.90
55091;DHT22;40985;53.180;5.800;2024-03-02T00:18:26;7.10;99.90
55091;DHT22;40985;53.180;5.800;2024-03-02T00:20:55;7.10;99.90
55091;DHT22;40985;53.180;5.800;2024-03-02T00:23:23;7.00;99.90
55091;DHT22;40985;53.180;5.800;2024-03-02T00:25:51;7.00;99.90
55091;DHT22;40985;53.180;5.800;2024-03-02T00:28:35;7.00;99.90
55091;DHT22;40985;53.180;5.800;2024-03-02T00:31:12;7.00;99.90
55091;DHT22;40985;53.180;5.800;2024-03-02T00:36:07;7.00;99.90
55091;DHT22;40985;53.180;5.800;2024-03-02T00:38:34;7.00;99.90
55091;DHT22;40985;53.180;5.800;2024-03-02T00:41:06;7.00;99.90
55091;DHT22;40985;53.180;5.800;2024-03-02T00:44:09;6.90;99.90
55091;DHT22;40985;53.180;5.800;2024-03-02T00:46:40;6.90;99.90
55091;DHT22;40985;53.180;5.800;2024-03-02T00:51:49;6.80;99.90
55091;DHT22;40985;53.180;5.800;2024-03-02T00:54:15;6.80;99.90
55091;DHT22;40985;53.180;5.800;2024-03-02T00:56:44;6.80;99.90
55091;DHT22;40985;53.180;5.800;2024-03-02T00:59:10;6.80;99.90
55091;DHT22;40985;53.180;5.800;2024-03-02T01:01:36;6.80;99.90
55091;DHT22;40985;53.180;5.800;2024-03-02T01:04:02;6.80;99.90
55091;DHT22;40985;53.180;5.800;2024-03-02T01:06:29;6.80;99.90
55091;DHT22;40985;53.180;5.800;2024-03-02T01:08:55;6.80;99.90
55091;DHT22;40985;53.180;5.800;2024-03-02T01:11:21;6.80;99.90
55091;DHT22;40985;53.180;5.800;2024-03-02T01:13:50;6.80;99.90
55091;DHT22;40985;53.180;5.800;2024-03-02T01:16:15;6.80;99.90
55091;DHT22;40985;53.180;5.800;2024-03-02T01:18:41;6.80;99.90
55091;DHT22;40985;53.180;5.800;2024-03-02T01:21:07;6.80;99.90
55091;DHT22;40985;53.180;5.800;2024-03-02T01:23:33;6.90;99.90
55091;DHT22;40985;53.180;5.800;2024-03-02T01:25:59;7.00;99.90
55091;DHT22;40985;53.180;5.800;2024-03-02T01:28:24;7.00;99.90
55091;DHT22;40985;53.180;5.800;2024-03-02T01:30:50;7.00;99.90
55091;DHT22;40985;53.180;5.800;2024-03-02T01:33:19;7.10;99.90
55091;DHT22;40985;53.180;5.800;2024-03-02T01:35:45;7.10;99.90
55091;DHT22;40985;53.180;5.800;2024-03-02T01:38:11;7.20;99.90
55091;DHT22;40985;53.180;5.800;2024-03-02T01:40:37;7.20;99.90
55091;DHT22;40985;53.180;5.800;2024-03-02T01:43:06;7.30;99.90
55091;DHT22;40985;53.180;5.800;2024-03-02T01:45:33;7.30;99.90
55091;DHT22;40985;53.180;5.800;2024-03-02T01:47:59;7.40;99.90
55091;DHT22;40985;53.180;5.800;2024-03-02T01:50:29;7.40;99.90
55091;DHT22;40985;53.180;5.800;2024-03-02T01:52:56;7.40;99.90
55091;DHT22;40985;53.180;5.800;2024-03-02T01:55:22;7.50;99.90
55091;DHT22;40985;53.180;5.800;2024-03-02T01:57:49;7.50;99.90
55091;DHT22;40985;53.180;5.800;2024-03-02T02:00:16;7.50;99.90
55091;DHT22;40985;53.180;5.800;2024-03-02T02:02:43;7.50;99.90
55091;DHT22;40985;53.180;5.800;2024-03-02T02:05:09;7.50;99.90
55091;DHT22;40985;53.180;5.800;2024-03-02T02:07:35;7.50;99.90
55091;DHT22;40985;53.180;5.800;2024-03-02T02:10:01;7.50;99.90
55091;DHT22;40985;53.180;5.800;2024-03-02T02:12:27;7.50;99.90
55091;DHT22;40985;53.180;5.800;2024-03-02T02:14:53;7.50;99.90
55091;DHT22;40985;53.180;5.800;2024-03-02T02:17:19;7.50;99.90
55091;DHT22;40985;53.180;5.800;2024-03-02T02:19:45;7.50;99.90
55091;DHT22;40985;53.180;5.800;2024-03-02T02:22:11;7.50;99.90
55091;DHT22;40985;53.180;5.800;2024-03-02T02:24:43;7.50;99.90
55091;DHT22;40985;53.180;5.800;2024-03-02T02:27:09;7.60;99.90
55091;DHT22;40985;53.180;5.800;2024-03-02T02:29:40;7.60;99.90
55091;DHT22;40985;53.180;5.800;2024-03-02T02:32:06;7.70;99.90
55091;DHT22;40985;53.180;5.800;2024-03-02T02:34:32;7.70;99.90
55091;DHT22;40985;53.180;5.800;2024-03-02T02:36:58;7.70;99.90
55091;DHT22;40985;53.180;5.800;2024-03-02T02:39:24;7.70;99.90
55091;DHT22;40985;53.180;5.800;2024-03-02T02:41:50;7.70;99.90
55091;DHT22;40985;53.180;5.800;2024-03-02T02:44:16;7.70;99.90
55091;DHT22;40985;53.180;5.800;2024-03-02T02:46:41;7.70;99.90
55091;DHT22;40985;53.180;5.800;2024-03-02T02:49:07;7.70;99.90
55091;DHT22;40985;53.180;5.800;2024-03-02T02:51:33;7.70;99.90
55091;DHT22;40985;53.180;5.800;2024-03-02T02:53:58;7.60;99.90
55091;DHT22;40985;53.180;5.800;2024-03-02T02:56:24;7.60;99.90
55091;DHT22;40985;53.180;5.800;2024-03-02T02:58:50;7.60;99.90
55091;DHT22;40985;53.180;5.800;2024-03-02T03:01:16;7.60;99.90
55091;DHT22;40985;53.180;5.800;2024-03-02T03:03:45;7.60;99.90
55091;DHT22;40985;53.180;5.800;2024-03-02T03:06:11;7.60;99.90
55091;DHT22;40985;53.180;5.800;2024-03-02T03:08:37;7.50;99.90
55091;DHT22;40985;53.180;5.800;2024-03-02T03:11:04;7.50;99.90
55091;DHT22;40985;53.180;5.800;2024-03-02T03:13:31;7.50;99.90
55091;DHT22;40985;53.180;5.800;2024-03-02T03:15:56;7.50;99.90
55091;DHT22;40985;53.180;5.800;2024-03-02T03:18:22;7.40;99.90
55091;DHT22;40985;53.180;5.800;2024-03-02T03:20:48;7.40;99.90
55091;DHT22;40985;53.180;5.800;2024-03-02T03:23:14;7.40;99.90
55091;DHT22;40985;53.180;5.800;2024-03-02T03:25:42;7.40;99.90
55091;DHT22;40985;53.180;5.800;2024-03-02T03:28:08;7.30;99.90
55091;DHT22;40985;53.180;5.800;2024-03-02T03:30:37;7.30;99.90
55091;DHT22;40985;53.180;5.800;2024-03-02T03:33:03;7.30;99.90
55091;DHT22;40985;53.180;5.800;2024-03-02T03:35:28;7.30;99.90
55091;DHT22;40985;53.180;5.800;2024-03-02T03:37:54;7.30;99.90
55091;DHT22;40985;53.180;5.800;2024-03-02T03:40:20;7.30;99.90
55091;DHT22;40985;53.180;5.800;2024-03-02T03:42:45;7.20;99.90
55091;DHT22;40985;53.180;5.800;2024-03-02T03:45:11;7.20;99.90
55091;DHT22;40985;53.180;5.800;2024-03-02T03:47:37;7.20;99.90
55091;DHT22;40985;53.180;5.800;2024-03-02T03:50:02;7.20;99.90
55091;DHT22;40985;53.180;5.800;2024-03-02T03:52:32;7.10;99.90
55091;DHT22;40985;53.180;5.800;2024-03-02T03:54:58;7.10;99.90
55091;DHT22;40985;53.180;5.800;2024-03-02T03:57:23;7.10;99.90
55091;DHT22;40985;53.180;5.800;2024-03-02T03:59:49;7.10;99.90
55091;DHT22;40985;53.180;5.800;2024-03-02T04:02:14;7.10;99.90
55091;DHT22;40985;53.180;5.800;2024-03-02T04:04:40;7.10;99.90
55091;DHT22;40985;53.180;5.800;2024-03-02T04:07:06;7.00;99.90
55091;DHT22;40985;53.180;5.800;2024-03-02T04:09:31;7.10;99.90
55091;DHT22;40985;53.180;5.800;2024-03-02T04:11:58;7.00;99.90
55091;DHT22;40985;53.180;5.800;2024-03-02T04:14:23;7.00;99.90
55091;DHT22;40985;53.180;5.800;2024-03-02T04:16:49;7.00;99.90
55091;DHT22;40985;53.180;5.800;2024-03-02T04:19:15;6.90;99.90
55091;DHT22;40985;53.180;5.800;2024-03-02T04:21:40;6.90;99.90
55091;DHT22;40985;53.180;5.800;2024-03-02T04:24:06;6.80;99.90
55091;DHT22;40985;53.180;5.800;2024-03-02T04:26:32;6.80;99.90
55091;DHT22;40985;53.180;5.800;2024-03-02T04:28:57;6.80;99.90
55091;DHT22;40985;53.180;5.800;2024-03-02T04:31:23;6.70;99.90
55091;DHT22;40985;53.180;5.800;2024-03-02T04:33:49;6.70;99.90
55091;DHT22;40985;53.180;5.800;2024-03-02T04:36:14;6.70;99.90
55091;DHT22;40985;53.180;5.800;2024-03-02T04:38:40;6.70;99.90
55091;DHT22;40985;53.180;5.800;2024-03-02T04:41:06;6.70;99.90
55091;DHT22;40985;53.180;5.800;2024-03-02T04:43:32;6.60;99.90
55091;DHT22;40985;53.180;5.800;2024-03-02T04:45:58;6.60;99.90
55091;DHT22;40985;53.180;5.800;2024-03-02T04:48:24;6.60;99.90
55091;DHT22;40985;53.180;5.800;2024-03-02T04:50:50;6.60;99.90
55091;DHT22;40985;53.180;5.800;2024-03-02T04:53:16;6.60;99.90
55091;DHT22;40985;53.180;5.800;2024-03-02T04:55:41;6.60;99.90
55091;DHT22;40985;53.180;5.800;2024-03-02T04:58:07;6.50;99.90
55091;DHT22;40985;53.180;5.800;2024-03-02T05:00:34;6.50;99.90
55091;DHT22;40985;53.180;5.800;2024-03-02T05:02:59;6.50;99.90
55091;DHT22;40985;53.180;5.800;2024-03-02T05:05:25;6.40;99.90
55091;DHT22;40985;53.180;5.800;2024-03-02T05:07:52;6.40;99.90
55091;DHT22;40985;53.180;5.800;2024-03-02T05:10:17;6.40;99.90
55091;DHT22;40985;53.180;5.800;2024-03-02T05:12:43;6.30;99.90
55091;DHT22;40985;53.180;5.800;2024-03-02T05:15:10;6.30;99.90
55091;DHT22;40985;53.180;5.800;2024-03-02T05:17:36;6.20;99.90
55091;DHT22;40985;53.180;5.800;2024-03-02T05:20:04;6.20;99.90
55091;DHT22;40985;53.180;5.800;2024-03-02T05:22:30;6.10;99.90
55091;DHT22;40985;53.180;5.800;2024-03-02T05:24:55;6.00;99.90
55091;DHT22;40985;53.180;5.800;2024-03-02T05:27:22;6.00;99.90
55091;DHT22;40985;53.180;5.800;2024-03-02T05:29:47;6.00;99.90
55091;DHT22;40985;53.180;5.800;2024-03-02T05:32:13;5.80;99.90
55091;DHT22;40985;53.180;5.800;2024-03-02T05:34:39;5.80;99.90
55091;DHT22;40985;53.180;5.800;2024-03-02T05:37:04;5.70;99.90
55091;DHT22;40985;53.180;5.800;2024-03-02T05:39:30;5.70;99.90
55091;DHT22;40985;53.180;5.800;2024-03-02T05:41:56;5.60;99.90
55091;DHT22;40985;53.180;5.800;2024-03-02T05:44:21;5.60;99.90
55091;DHT22;40985;53.180;5.800;2024-03-02T05:46:48;5.50;99.90
55091;DHT22;40985;53.180;5.800;2024-03-02T05:49:13;5.50;99.90
55091;DHT22;40985;53.180;5.800;2024-03-02T05:51:39;5.50;99.90
55091;DHT22;40985;53.180;5.800;2024-03-02T05:54:05;5.40;99.90
55091;DHT22;40985;53.180;5.800;2024-03-02T05:56:30;5.40;99.90
55091;DHT22;40985;53.180;5.800;2024-03-02T05:58:56;5.30;99.90
55091;DHT22;40985;53.180;5.800;2024-03-02T06:01:46;5.20;99.90
55091;DHT22;40985;53.180;5.800;2024-03-02T06:04:17;5.10;99.90
55091;DHT22;40985;53.180;5.800;2024-03-02T06:06:43;5.10;99.90
55091;DHT22;40985;53.180;5.800;2024-03-02T06:09:09;5.00;99.90
55091;DHT22;40985;53.180;5.800;2024-03-02T06:11:40;4.90;99.90
55091;DHT22;40985;53.180;5.800;2024-03-02T06:14:09;4.90;99.90
55091;DHT22;40985;53.180;5.800;2024-03-02T06:16:34;4.90;99.90
55091;DHT22;40985;53.180;5.800;2024-03-02T06:19:01;4.80;99.90
55091;DHT22;40985;53.180;5.800;2024-03-02T06:21:27;4.80;99.90
55091;DHT22;40985;53.180;5.800;2024-03-02T06:23:53;4.80;99.90
55091;DHT22;40985;53.180;5.800;2024-03-02T06:26:19;4.90;99.90
55091;DHT22;40985;53.180;5.800;2024-03-02T06:28:46;4.90;99.90
55091;DHT22;40985;53.180;5.800;2024-03-02T06:31:11;4.90;99.90
55091;DHT22;40985;53.180;5.800;2024-03-02T06:33:37;4.80;99.90
55091;DHT22;40985;53.180;5.800;2024-03-02T06:36:03;4.80;99.90
55091;DHT22;40985;53.180;5.800;2024-03-02T06:38:29;4.70;99.90
55091;DHT22;40985;53.180;5.800;2024-03-02T06:40:57;4.70;99.90
55091;DHT22;40985;53.180;5.800;2024-03-02T06:43:23;4.60;99.90
55091;DHT22;40985;53.180;5.800;2024-03-02T06:45:51;4.60;99.90
55091;DHT22;40985;53.180;5.800;2024-03-02T06:48:18;4.60;99.90
55091;DHT22;40985;53.180;5.800;2024-03-02T06:50:46;4.50;99.90
55091;DHT22;40985;53.180;5.800;2024-03-02T06:53:13;4.50;99.90
55091;DHT22;40985;53.180;5.800;2024-03-02T06:55:39;4.50;99.90
55091;DHT22;40985;53.180;5.800;2024-03-02T06:58:04;4.40;99.90
55091;DHT22;40985;53.180;5.800;2024-03-02T07:00:30;4.40;99.90
55091;DHT22;40985;53.180;5.800;2024-03-02T07:02:56;4.40;99.90
55091;DHT22;40985;53.180;5.800;2024-03-02T07:05:22;4.40;99.90
55091;DHT22;40985;53.180;5.800;2024-03-02T07:07:47;4.40;99.90
55091;DHT22;40985;53.180;5.800;2024-03-02T07:10:13;4.50;99.90
55091;DHT22;40985;53.180;5.800;2024-03-02T07:12:39;4.50;99.90
55091;DHT22;40985;53.180;5.800;2024-03-02T07:15:05;4.50;99.90
55091;DHT22;40985;53.180;5.800;2024-03-02T07:17:31;4.50;99.90
55091;DHT22;40985;53.180;5.800;2024-03-02T07:19:57;4.50;99.90
55091;DHT22;40985;53.180;5.800;2024-03-02T07:22:23;4.50;99.90
55091;DHT22;40985;53.180;5.800;2024-03-02T07:24:49;4.50;99.90
55091;DHT22;40985;53.180;5.800;2024-03-02T07:27:16;4.60;99.90
55091;DHT22;40985;53.180;5.800;2024-03-02T07:29:42;4.60;99.90
55091;DHT22;40985;53.180;5.800;2024-03-02T07:32:08;4.70;99.90
55091;DHT22;40985;53.180;5.800;2024-03-02T07:34:35;4.70;99.90
55091;DHT22;40985;53.180;5.800;2024-03-02T07:37:00;4.70;99.90
55091;DHT22;40985;53.180;5.800;2024-03-02T07:39:27;4.70;99.90
55091;DHT22;40985;53.180;5.800;2024-03-02T07:41:52;4.80;99.90
55091;DHT22;40985;53.180;5.800;2024-03-02T07:44:18;4.80;99.90
55091;DHT22;40985;53.180;5.800;2024-03-02T07:46:45;4.80;99.90
55091;DHT22;40985;53.180;5.800;2024-03-02T07:49:18;4.90;99.90
55091;DHT22;40985;53.180;5.800;2024-03-02T07:51:44;4.90;99.90
55091;DHT22;40985;53.180;5.800;2024-03-02T07:54:10;5.00;99.90
55091;DHT22;40985;53.180;5.800;2024-03-02T07:56:36;5.10;99.90
55091;DHT22;40985;53.180;5.800;2024-03-02T07:59:02;5.10;99.90
55091;DHT22;40985;53.180;5.800;2024-03-02T08:01:28;5.20;99.90
55091;DHT22;40985;53.180;5.800;2024-03-02T08:03:59;5.20;99.90
55091;DHT22;40985;53.180;5.800;2024-03-02T08:06:26;5.30;99.90
55091;DHT22;40985;53.180;5.800;2024-03-02T08:08:55;5.30;99.90
55091;DHT22;40985;53.180;5.800;2024-03-02T08:11:21;5.40;99.90
55091;DHT22;40985;53.180;5.800;2024-03-02T08:13:47;5.50;99.90
55091;DHT22;40985;53.180;5.800;2024-03-02T08:16:17;5.60;99.90
55091;DHT22;40985;53.180;5.800;2024-03-02T08:18:47;5.60;99.90
55091;DHT22;40985;53.180;5.800;2024-03-02T08:21:13;5.70;99.90
55091;DHT22;40985;53.180;5.800;2024-03-02T08:23:40;5.70;99.90
55091;DHT22;40985;53.180;5.800;2024-03-02T08:26:07;5.80;99.90
55091;DHT22;40985;53.180;5.800;2024-03-02T08:28:33;5.90;99.90
55091;DHT22;40985;53.180;5.800;2024-03-02T08:30:59;6.00;99.90
55091;DHT22;40985;53.180;5.800;2024-03-02T08:33:25;6.00;99.90
55091;DHT22;40985;53.180;5.800;2024-03-02T08:35:51;6.10;99.90
55091;DHT22;40985;53.180;5.800;2024-03-02T08:38:17;6.20;99.90
55091;DHT22;40985;53.180;5.800;2024-03-02T08:40:44;6.30;99.90
55091;DHT22;40985;53.180;5.800;2024-03-02T08:43:10;6.30;99.90
55091;DHT22;40985;53.180;5.800;2024-03-02T08:45:36;6.30;99.90
55091;DHT22;40985;53.180;5.800;2024-03-02T08:48:01;6.40;99.90
55091;DHT22;40985;53.180;5.800;2024-03-02T08:50:27;6.40;99.90
55091;DHT22;40985;53.180;5.800;2024-03-02T08:52:53;6.50;99.90
55091;DHT22;40985;53.180;5.800;2024-03-02T08:55:18;6.60;99.90
55091;DHT22;40985;53.180;5.800;2024-03-02T08:57:44;6.70;99.90
55091;DHT22;40985;53.180;5.800;2024-03-02T09:00:10;6.70;99.90
55091;DHT22;40985;53.180;5.800;2024-03-02T09:02:36;6.80;99.90
55091;DHT22;40985;53.180;5.800;2024-03-02T09:05:02;6.90;99.90
55091;DHT22;40985;53.180;5.800;2024-03-02T09:07:28;7.00;99.90
55091;DHT22;40985;53.180;5.800;2024-03-02T09:09:53;7.10;99.90
55091;DHT22;40985;53.180;5.800;2024-03-02T09:12:19;7.10;99.90
55091;DHT22;40985;53.180;5.800;2024-03-02T09:14:45;7.20;99.90
55091;DHT22;40985;53.180;5.800;2024-03-02T09:17:12;7.30;99.90
55091;DHT22;40985;53.180;5.800;2024-03-02T09:19:39;7.40;99.90
55091;DHT22;40985;53.180;5.800;2024-03-02T09:22:04;7.40;99.90
55091;DHT22;40985;53.180;5.800;2024-03-02T09:24:31;7.40;99.90
55091;DHT22;40985;53.180;5.800;2024-03-02T09:26:59;7.40;99.90
55091;DHT22;40985;53.180;5.800;2024-03-02T09:29:24;7.40;99.90
55091;DHT22;40985;53.180;5.800;2024-03-02T09:31:50;7.40;99.90
55091;DHT22;40985;53.180;5.800;2024-03-02T09:34:17;7.50;99.90
55091;DHT22;40985;53.180;5.800;2024-03-02T09:36:43;7.60;99.90
55091;DHT22;40985;53.180;5.800;2024-03-02T09:39:09;7.70;99.90
55091;DHT22;40985;53.180;5.800;2024-03-02T09:41:38;7.80;99.90
55091;DHT22;40985;53.180;5.800;2024-03-02T09:44:05;7.90;99.90
55091;DHT22;40985;53.180;5.800;2024-03-02T09:46:31;8.00;99.90
55091;DHT22;40985;53.180;5.800;2024-03-02T09:48:57;8.10;99.90
55091;DHT22;40985;53.180;5.800;2024-03-02T09:51:23;8.20;99.90
55091;DHT22;40985;53.180;5.800;2024-03-02T09:53:49;8.30;99.90
55091;DHT22;40985;53.180;5.800;2024-03-02T09:56:15;8.30;99.90
55091;DHT22;40985;53.180;5.800;2024-03-02T09:58:47;8.40;99.90
55091;DHT22;40985;53.180;5.800;2024-03-02T10:01:13;8.50;99.90
55091;DHT22;40985;53.180;5.800;2024-03-02T10:03:39;8.50;99.90
55091;DHT22;40985;53.180;5.800;2024-03-02T10:06:24;8.60;99.90
55091;DHT22;40985;53.180;5.800;2024-03-02T10:08:50;8.60;99.90
55091;DHT22;40985;53.180;5.800;2024-03-02T10:11:32;8.70;99.90
55091;DHT22;40985;53.180;5.800;2024-03-02T10:16:37;8.80;99.90
55091;DHT22;40985;53.180;5.800;2024-03-02T10:19:25;8.90;99.90
55091;DHT22;40985;53.180;5.800;2024-03-02T10:21:53;9.00;99.90
55091;DHT22;40985;53.180;5.800;2024-03-02T10:24:21;9.00;99.90
55091;DHT22;40985;53.180;5.800;2024-03-02T10:26:47;9.10;99.90
55091;DHT22;40985;53.180;5.800;2024-03-02T10:29:13;9.10;99.90
55091;DHT22;40985;53.180;5.800;2024-03-02T10:31:41;9.20;99.90
55091;DHT22;40985;53.180;5.800;2024-03-02T10:34:07;9.10;99.90
55091;DHT22;40985;53.180;5.800;2024-03-02T10:36:34;9.10;99.90
55091;DHT22;40985;53.180;5.800;2024-03-02T10:39:04;9.20;99.90
55091;DHT22;40985;53.180;5.800;2024-03-02T10:41:35;9.20;99.90
55091;DHT22;40985;53.180;5.800;2024-03-02T10:44:05;9.30;99.90
55091;DHT22;40985;53.180;5.800;2024-03-02T10:46:33;9.20;99.90
55091;DHT22;40985;53.180;5.800;2024-03-02T10:49:03;9.30;99.90
55091;DHT22;40985;53.180;5.800;2024-03-02T10:51:31;9.30;99.90
55091;DHT22;40985;53.180;5.800;2024-03-02T10:54:01;9.30;99.90
55091;DHT22;40985;53.180;5.800;2024-03-02T10:56:41;9.40;99.90
55091;DHT22;40985;53.180;5.800;2024-03-02T11:01:55;9.40;99.90
55091;DHT22;40985;53.180;5.800;2024-03-02T11:04:24;9.50;99.90
55091;DHT22;40985;53.180;5.800;2024-03-02T11:06:51;9.60;99.90
55091;DHT22;40985;53.180;5.800;2024-03-02T11:09:22;9.70;99.90
55091;DHT22;40985;53.180;5.800;2024-03-02T11:12:29;9.70;99.90
55091;DHT22;40985;53.180;5.800;2024-03-02T11:14:56;9.90;99.90
55091;DHT22;40985;53.180;5.800;2024-03-02T11:17:21;10.00;99.90
55091;DHT22;40985;53.180;5.800;2024-03-02T11:19:48;10.00;99.90
55091;DHT22;40985;53.180;5.800;2024-03-02T11:22:15;10.00;99.90
55091;DHT22;40985;53.180;5.800;2024-03-02T11:24:48;10.10;99.90
55091;DHT22;40985;53.180;5.800;2024-03-02T11:27:14;10.10;99.90
55091;DHT22;40985;53.180;5.800;2024-03-02T11:32:14;10.30;99.90
55091;DHT22;40985;53.180;5.800;2024-03-02T11:34:44;10.40;99.90
55091;DHT22;40985;53.180;5.800;2024-03-02T11:37:11;10.40;99.90
55091;DHT22;40985;53.180;5.800;2024-03-02T11:39:39;10.60;99.90
55091;DHT22;40985;53.180;5.800;2024-03-02T11:42:08;10.60;99.90
55091;DHT22;40985;53.180;5.800;2024-03-02T11:44:45;10.70;99.90
55091;DHT22;40985;53.180;5.800;2024-03-02T11:47:15;10.70;99.90
55091;DHT22;40985;53.180;5.800;2024-03-02T11:49:49;10.90;99.90
55091;DHT22;40985;53.180;5.800;2024-03-02T11:52:17;10.90;99.90
55091;DHT22;40985;53.180;5.800;2024-03-02T11:54:45;11.00;99.90
55091;DHT22;40985;53.180;5.800;2024-03-02T11:57:17;11.10;99.90
55091;DHT22;40985;53.180;5.800;2024-03-02T11:59:45;11.10;99.90
55091;DHT22;40985;53.180;5.800;2024-03-02T12:02:20;11.10;99.90
55091;DHT22;40985;53.180;5.800;2024-03-02T12:04:47;11.30;99.90
55091;DHT22;40985;53.180;5.800;2024-03-02T12:07:23;11.20;99.90
55091;DHT22;40985;53.180;5.800;2024-03-02T12:09:59;11.20;99.90
55091;DHT22;40985;53.180;5.800;2024-03-02T12:12:24;11.30;99.90
55091;DHT22;40985;53.180;5.800;2024-03-02T12:14:52;11.40;99.90
55091;DHT22;40985;53.180;5.800;2024-03-02T12:17:21;11.30;99.90
55091;DHT22;40985;53.180;5.800;2024-03-02T12:19:47;11.40;99.90
55091;DHT22;40985;53.180;5.800;2024-03-02T12:22:13;11.40;99.90
55091;DHT22;40985;53.180;5.800;2024-03-02T12:24:39;11.50;99.90
55091;DHT22;40985;53.180;5.800;2024-03-02T12:27:06;11.60;99.90
55091;DHT22;40985;53.180;5.800;2024-03-02T12:29:32;11.70;99.90
55091;DHT22;40985;53.180;5.800;2024-03-02T12:31:59;11.70;99.90
55091;DHT22;40985;53.180;5.800;2024-03-02T12:34:26;11.80;99.90
55091;DHT22;40985;53.180;5.800;2024-03-02T12:36:52;11.90;99.90
55091;DHT22;40985;53.180;5.800;2024-03-02T12:39:21;11.80;99.90
55091;DHT22;40985;53.180;5.800;2024-03-02T12:41:50;11.70;99.90
55091;DHT22;40985;53.180;5.800;2024-03-02T12:44:19;11.70;99.90
55091;DHT22;40985;53.180;5.800;2024-03-02T12:46:46;11.60;99.90
55091;DHT22;40985;53.180;5.800;2024-03-02T12:49:14;11.80;99.90
55091;DHT22;40985;53.180;5.800;2024-03-02T12:51:42;11.90;99.90
55091;DHT22;40985;53.180;5.800;2024-03-02T12:54:09;12.10;99.90
55091;DHT22;40985;53.180;5.800;2024-03-02T12:56:35;12.10;99.90
55091;DHT22;40985;53.180;5.800;2024-03-02T12:59:01;12.10;99.90
55091;DHT22;40985;53.180;5.800;2024-03-02T13:01:27;12.00;99.10
55091;DHT22;40985;53.180;5.800;2024-03-02T13:03:53;11.90;99.90
55091;DHT22;40985;53.180;5.800;2024-03-02T13:06:23;11.60;99.90
55091;DHT22;40985;53.180;5.800;2024-03-02T13:08:49;11.50;99.90
55091;DHT22;40985;53.180;5.800;2024-03-02T13:11:16;11.40;99.90
55091;DHT22;40985;53.180;5.800;2024-03-02T13:13:42;11.70;99.90
55091;DHT22;40985;53.180;5.800;2024-03-02T13:16:12;12.00;99.90
55091;DHT22;40985;53.180;5.800;2024-03-02T13:18:39;12.10;99.90
55091;DHT22;40985;53.180;5.800;2024-03-02T13:21:06;12.20;99.90
55091;DHT22;40985;53.180;5.800;2024-03-02T13:23:32;12.30;99.90
55091;DHT22;40985;53.180;5.800;2024-03-02T13:25:58;12.10;99.90
55091;DHT22;40985;53.180;5.800;2024-03-02T13:28:27;12.10;99.60
55091;DHT22;40985;53.180;5.800;2024-03-02T13:30:53;12.00;99.20
55091;DHT22;40985;53.180;5.800;2024-03-02T13:33:19;12.00;99.90
55091;DHT22;40985;53.180;5.800;2024-03-02T13:35:53;12.20;99.90
55091;DHT22;40985;53.180;5.800;2024-03-02T13:38:20;12.10;98.80
55091;DHT22;40985;53.180;5.800;2024-03-02T13:40:49;12.20;95.50
55091;DHT22;40985;53.180;5.800;2024-03-02T13:43:18;12.30;94.80
55091;DHT22;40985;53.180;5.800;2024-03-02T13:45:46;12.40;95.60
55091;DHT22;40985;53.180;5.800;2024-03-02T13:48:11;12.40;95.30
55091;DHT22;40985;53.180;5.800;2024-03-02T13:50:37;12.50;96.20
55091;DHT22;40985;53.180;5.800;2024-03-02T13:53:03;12.40;95.10
55091;DHT22;40985;53.180;5.800;2024-03-02T13:55:29;12.40;95.70
55091;DHT22;40985;53.180;5.800;2024-03-02T13:57:55;12.30;93.70
55091;DHT22;40985;53.180;5.800;2024-03-02T14:00:21;12.20;96.30
55091;DHT22;40985;53.180;5.800;2024-03-02T14:02:47;12.30;97.20
55091;DHT22;40985;53.180;5.800;2024-03-02T14:05:15;12.40;97.90
55091;DHT22;40985;53.180;5.800;2024-03-02T14:07:41;12.40;97.00
55091;DHT22;40985;53.180;5.800;2024-03-02T14:10:08;12.40;95.10
55091;DHT22;40985;53.180;5.800;2024-03-02T14:12:33;12.50;94.90
55091;DHT22;40985;53.180;5.800;2024-03-02T14:14:59;12.50;94.50
55091;DHT22;40985;53.180;5.800;2024-03-02T14:17:27;12.50;94.50
55091;DHT22;40985;53.180;5.800;2024-03-02T14:19:53;12.60;94.70
55091;DHT22;40985;53.180;5.800;2024-03-02T14:22:19;12.50;95.10
55091;DHT22;40985;53.180;5.800;2024-03-02T14:24:46;12.60;96.00
55091;DHT22;40985;53.180;5.800;2024-03-02T14:27:13;12.50;96.00
55091;DHT22;40985;53.180;5.800;2024-03-02T14:29:39;12.50;96.60
55091;DHT22;40985;53.180;5.800;2024-03-02T14:32:06;12.40;95.20
55091;DHT22;40985;53.180;5.800;2024-03-02T14:34:31;12.10;94.70
55091;DHT22;40985;53.180;5.800;2024-03-02T14:36:58;12.20;95.60
55091;DHT22;40985;53.180;5.800;2024-03-02T14:39:25;12.20;97.00
55091;DHT22;40985;53.180;5.800;2024-03-02T14:41:51;12.30;98.80
55091;DHT22;40985;53.180;5.800;2024-03-02T14:44:16;12.20;96.80
55091;DHT22;40985;53.180;5.800;2024-03-02T14:46:43;12.20;97.20
55091;DHT22;40985;53.180;5.800;2024-03-02T14:49:12;12.30;98.20
55091;DHT22;40985;53.180;5.800;2024-03-02T14:51:38;12.20;99.20
55091;DHT22;40985;53.180;5.800;2024-03-02T14:54:03;12.20;99.90
55091;DHT22;40985;53.180;5.800;2024-03-02T14:56:29;12.00;99.90
55091;DHT22;40985;53.180;5.800;2024-03-02T14:58:55;11.80;99.90
55091;DHT22;40985;53.180;5.800;2024-03-02T15:01:21;11.90;99.90
55091;DHT22;40985;53.180;5.800;2024-03-02T15:03:53;11.80;99.90
55091;DHT22;40985;53.180;5.800;2024-03-02T15:06:18;11.60;99.30
55091;DHT22;40985;53.180;5.800;2024-03-02T15:08:44;11.50;99.90
55091;DHT22;40985;53.180;5.800;2024-03-02T15:11:12;11.40;99.90
55091;DHT22;40985;53.180;5.800;2024-03-02T15:13:38;11.20;99.90
55091;DHT22;40985;53.180;5.800;2024-03-02T15:16:04;11.10;99.90
55091;DHT22;40985;53.180;5.800;2024-03-02T15:18:29;10.90;99.90
55091;DHT22;40985;53.180;5.800;2024-03-02T15:20:56;10.90;99.90
55091;DHT22;40985;53.180;5.800;2024-03-02T15:23:21;10.80;99.90
55091;DHT22;40985;53.180;5.800;2024-03-02T15:25:47;10.80;99.90
55091;DHT22;40985;53.180;5.800;2024-03-02T15:28:13;10.80;99.90
55091;DHT22;40985;53.180;5.800;2024-03-02T15:30:39;10.80;99.90
55091;DHT22;40985;53.180;5.800;2024-03-02T15:33:05;10.80;99.90
55091;DHT22;40985;53.180;5.800;2024-03-02T15:35:30;10.70;99.90
55091;DHT22;40985;53.180;5.800;2024-03-02T15:37:56;10.60;99.90
55091;DHT22;40985;53.180;5.800;2024-03-02T15:40:22;10.60;99.90
55091;DHT22;40985;53.180;5.800;2024-03-02T15:42:48;10.60;99.90
55091;DHT22;40985;53.180;5.800;2024-03-02T15:45:13;10.50;99.90
55091;DHT22;40985;53.180;5.800;2024-03-02T15:47:40;10.50;99.90
55091;DHT22;40985;53.180;5.800;2024-03-02T15:50:06;10.50;99.90
55091;DHT22;40985;53.180;5.800;2024-03-02T15:52:32;10.50;99.90
55091;DHT22;40985;53.180;5.800;2024-03-02T15:54:58;10.40;99.90